Time;durP1;ratioP1;P1;durP2;ratioP2;P2;SDS_P1;SDS_P2;PMS_P1;PMS_P2;Temp;Humidity;BMP_temperature;BMP_pressure;BME280_temperature;BME280_humidity;BME280_pressure;Samples;Min_cycle;Max_cycle;Signal;HPM_P1;HPM_P2
2021/10/23 00:00:17;;;;;;;10.00;4.73;;;;;;;7.53;98.58;101688.72;680452;28;2637;-51
2021/10/23 00:00:37;;;;;;;10.65;4.70;;;;;;;7.54;98.51;101689.63;682680;28;1304;-51
2021/10/23 00:00:58;;;;;;;10.00;4.83;;;;;;;7.53;99.05;101691.31;680871;28;4403;-53
2021/10/23 00:01:18;;;;;;;9.98;5.03;;;;;;;7.55;98.94;101686.19;682671;28;1172;-52
2021/10/23 00:01:39;;;;;;;9.90;4.85;;;;;;;7.55;97.55;101692.25;681973;28;1260;-52
2021/10/23 00:01:59;;;;;;;9.70;4.43;;;;;;;7.57;97.93;101689.69;686319;28;1352;-52
2021/10/23 00:02:20;;;;;;;11.13;5.20;;;;;;;7.53;98.31;101690.44;685453;28;1294;-53
2021/10/23 00:02:40;;;;;;;10.93;5.35;;;;;;;7.50;99.22;101691.25;685021;28;1287;-50
2021/10/23 00:03:01;;;;;;;9.82;5.22;;;;;;;7.46;99.50;101695.53;683375;28;2154;-51
2021/10/23 00:03:21;;;;;;;9.47;5.33;;;;;;;7.45;98.80;101698.97;682341;28;1376;-52
2021/10/23 00:03:41;;;;;;;8.80;4.80;;;;;;;7.47;98.48;101697.25;683145;28;1419;-52
2021/10/23 00:04:02;;;;;;;9.30;4.82;;;;;;;7.51;98.23;101695.63;682260;28;4372;-50
2021/10/23 00:04:22;;;;;;;9.23;4.90;;;;;;;7.54;97.33;101698.28;684302;28;1322;-53
2021/10/23 00:04:45;;;;;;;9.20;4.93;;;;;;;7.52;98.74;101693.88;682542;28;1121;-52
2021/10/23 00:05:06;;;;;;;9.95;5.35;;;;;;;7.50;99.09;101694.75;686078;28;1108;-51
2021/10/23 00:05:27;;;;;;;11.85;5.43;;;;;;;7.50;98.82;101699.97;687210;28;1017;-52
2021/10/23 00:05:47;;;;;;;12.03;5.30;;;;;;;7.50;97.78;101699.06;685797;28;4010;-52
2021/10/23 00:06:07;;;;;;;10.20;4.57;;;;;;;7.52;97.71;101699.09;685719;28;3781;-52
2021/10/23 00:06:28;;;;;;;10.13;4.80;;;;;;;7.53;98.17;101695.66;684493;28;1192;-51
2021/10/23 00:06:49;;;;;;;10.70;5.22;;;;;;;7.52;99.17;101701.69;682371;28;4802;-52
2021/10/23 00:07:09;;;;;;;13.00;5.40;;;;;;;7.50;99.68;101697.34;679736;28;1195;-51
2021/10/23 00:07:29;;;;;;;11.33;5.50;;;;;;;7.48;100.00;101701.63;679993;28;1137;-51
2021/10/23 00:07:50;;;;;;;11.60;5.60;;;;;;;7.48;100.00;101700.75;679692;28;1219;-52
2021/10/23 00:08:10;;;;;;;11.10;5.33;;;;;;;7.46;100.00;101703.34;681174;28;1200;-53
2021/10/23 00:08:31;;;;;;;12.10;5.10;;;;;;;7.45;100.00;101704.16;679160;28;1161;-54
2021/10/23 00:08:51;;;;;;;10.68;4.85;;;;;;;7.45;99.48;101703.28;678994;29;3423;-52
2021/10/23 00:09:11;;;;;;;10.83;4.93;;;;;;;7.45;99.29;101704.16;678631;29;1931;-50
2021/10/23 00:09:32;;;;;;;8.68;4.47;;;;;;;7.45;99.22;101709.38;676397;29;1537;-55
2021/10/23 00:09:52;;;;;;;9.10;4.40;;;;;;;7.46;99.05;101695.53;675053;29;4576;-53
2021/10/23 00:10:13;;;;;;;9.32;4.55;;;;;;;7.47;99.23;101705.06;672207;29;1245;-50
2021/10/23 00:10:33;;;;;;;9.87;5.00;;;;;;;7.48;99.07;101708.56;679121;28;1221;-51
2021/10/23 00:10:54;;;;;;;10.82;5.40;;;;;;;7.49;99.83;101708.59;680601;28;1093;-49
2021/10/23 00:11:14;;;;;;;11.97;5.10;;;;;;;7.48;100.00;101709.44;680882;28;1323;-49
2021/10/23 00:11:35;;;;;;;11.65;5.00;;;;;;;7.48;99.05;101711.16;683841;28;1198;-50
2021/10/23 00:11:55;;;;;;;9.07;4.65;;;;;;;7.48;98.81;101706.84;683479;28;3411;-54
2021/10/23 00:12:15;;;;;;;7.57;4.30;;;;;;;7.50;98.66;101715.56;686516;28;1358;-53
2021/10/23 00:12:36;;;;;;;8.13;4.40;;;;;;;7.52;98.43;101714.72;685976;28;1287;-49
2021/10/23 00:12:57;;;;;;;9.17;4.50;;;;;;;7.54;98.28;101718.25;685418;28;4354;-52
2021/10/23 00:13:18;;;;;;;12.70;4.77;;;;;;;7.55;99.00;101714.81;686491;28;1342;-51
2021/10/23 00:13:38;;;;;;;11.95;5.00;;;;;;;7.53;98.67;101714.75;685105;28;1137;-54
2021/10/23 00:13:58;;;;;;;9.67;4.70;;;;;;;7.54;98.46;101713.91;684254;28;1390;-52
2021/10/23 00:14:19;;;;;;;11.25;4.60;;;;;;;7.56;98.33;101717.44;683017;28;1173;-50
2021/10/23 00:14:39;;;;;;;11.50;4.87;;;;;;;7.57;98.27;101713.09;682702;28;3298;-53
2021/10/23 00:15:00;;;;;;;11.57;5.00;;;;;;;7.56;99.12;101711.34;683184;28;3679;-51
2021/10/23 00:15:20;;;;;;;11.17;5.27;;;;;;;7.55;99.33;101710.47;682136;28;1371;-49
2021/10/23 00:15:42;;;;;;;11.10;5.30;;;;;;;7.53;100.00;101713.88;683343;28;1149;-50
2021/10/23 00:16:02;;;;;;;11.37;5.37;;;;;;;7.53;100.00;101721.69;682685;28;4455;-51
2021/10/23 00:16:23;;;;;;;11.13;5.32;;;;;;;7.51;99.62;101713.84;683622;28;1157;-50
2021/10/23 00:16:43;;;;;;;9.10;5.00;;;;;;;7.52;98.92;101717.31;683376;28;2762;-50
2021/10/23 00:17:04;;;;;;;9.60;4.85;;;;;;;7.52;98.46;101718.22;683087;28;1054;-50
2021/10/23 00:17:24;;;;;;;10.40;4.85;;;;;;;7.56;98.56;101716.53;682983;28;1089;-51
2021/10/23 00:17:45;;;;;;;11.40;4.93;;;;;;;7.57;98.33;101718.31;681819;28;2497;-50
2021/10/23 00:18:05;;;;;;;10.98;4.97;;;;;;;7.58;98.44;101717.47;683532;28;1236;-51
2021/10/23 00:18:26;;;;;;;9.67;4.70;;;;;;;7.59;97.76;101721.84;686636;28;1134;-50
2021/10/23 00:18:46;;;;;;;9.70;4.90;;;;;;;7.60;98.07;101721.88;685104;28;1061;-50
2021/10/23 00:19:07;;;;;;;9.90;4.80;;;;;;;7.61;98.08;101726.22;684521;28;5486;-50
2021/10/23 00:19:27;;;;;;;8.93;4.93;;;;;;;7.64;97.90;101725.41;685757;28;1101;-50
2021/10/23 00:19:47;;;;;;;10.47;4.77;;;;;;;7.65;97.49;101721.97;685870;28;1224;-53
2021/10/23 00:20:08;;;;;;;11.45;4.60;;;;;;;7.65;97.80;101725.44;685130;28;1157;-53
2021/10/23 00:20:29;;;;;;;11.20;4.95;;;;;;;7.64;98.73;101726.31;683263;28;1311;-54
2021/10/23 00:20:49;;;;;;;10.77;4.93;;;;;;;7.63;99.05;101724.56;683633;28;3472;-50
2021/10/23 00:21:10;;;;;;;11.68;5.43;;;;;;;7.61;100.00;101725.34;683868;28;1150;-50
2021/10/23 00:21:30;;;;;;;13.73;5.53;;;;;;;7.60;99.14;101728.78;684058;28;1088;-54
2021/10/23 00:21:51;;;;;;;11.68;5.32;;;;;;;7.58;99.27;101720.94;682750;28;4473;-52
2021/10/23 00:22:11;;;;;;;10.70;5.13;;;;;;;7.58;99.51;101730.50;680720;28;1213;-53
2021/10/23 00:22:32;;;;;;;11.33;5.37;;;;;;;7.57;99.72;101724.38;682270;28;1263;-52
2021/10/23 00:22:53;;;;;;;11.23;5.63;;;;;;;7.57;99.49;101726.13;682564;28;985;-51
2021/10/23 00:23:13;;;;;;;9.57;5.30;;;;;;;7.56;99.08;101726.94;683317;28;1379;-51
2021/10/23 00:23:34;;;;;;;9.60;5.30;;;;;;;7.58;98.70;101733.09;682475;28;2200;-53
2021/10/23 00:23:54;;;;;;;9.13;4.82;;;;;;;7.58;98.87;101735.69;680776;28;2149;-52
2021/10/23 00:24:15;;;;;;;9.83;5.17;;;;;;;7.60;98.29;101728.78;680102;28;1132;-54
2021/10/23 00:24:35;;;;;;;9.90;4.72;;;;;;;7.59;98.72;101727.91;679799;28;1315;-51
2021/10/23 00:24:56;;;;;;;9.95;5.30;;;;;;;7.58;99.01;101728.75;680659;28;4528;-51
2021/10/23 00:25:19;;;;;;;12.13;5.47;;;;;;;7.57;99.16;101732.19;681270;28;1299;-54
2021/10/23 00:25:39;;;;;;;12.48;5.18;;;;;;;7.57;98.71;101733.94;681685;28;1494;-53
2021/10/23 00:26:00;;;;;;;10.30;4.57;;;;;;;7.59;98.58;101737.47;684305;28;1018;-52
2021/10/23 00:26:20;;;;;;;9.77;4.70;;;;;;;7.60;97.49;101734.00;683129;28;1483;-52
2021/10/23 00:26:40;;;;;;;10.03;5.23;;;;;;;7.60;97.39;101727.09;682152;28;1948;-54
2021/10/23 00:27:01;;;;;;;9.48;5.18;;;;;;;7.61;97.61;101733.16;683272;28;3779;-54
2021/10/23 00:27:21;;;;;;;10.63;5.33;;;;;;;7.62;99.40;101741.00;683337;28;1144;-53
2021/10/23 00:27:42;;;;;;;10.82;5.22;;;;;;;7.62;99.23;101729.72;681391;28;1557;-52
2021/10/23 00:28:02;;;;;;;11.27;5.10;;;;;;;7.61;99.57;101739.22;681150;28;4371;-50
2021/10/23 00:28:23;;;;;;;12.18;5.68;;;;;;;7.61;99.61;101733.16;680708;28;1167;-50
2021/10/23 00:28:43;;;;;;;11.23;6.65;;;;;;;7.61;99.30;101738.38;679246;28;1103;-50
2021/10/23 00:29:04;;;;;;;12.13;6.73;;;;;;;7.59;99.76;101732.25;681257;28;1066;-49
2021/10/23 00:29:24;;;;;;;11.55;5.70;;;;;;;7.58;99.44;101735.69;680860;28;1946;-50
2021/10/23 00:29:44;;;;;;;10.97;5.60;;;;;;;7.58;99.13;101735.69;682755;28;3344;-52
2021/10/23 00:30:06;;;;;;;10.30;5.10;;;;;;;7.58;98.78;101733.09;682790;28;1351;-50
2021/10/23 00:30:27;;;;;;;9.45;5.07;;;;;;;7.59;98.82;101734.84;682780;28;1337;-49
2021/10/23 00:30:47;;;;;;;9.10;5.07;;;;;;;7.59;98.71;101732.25;681828;28;1152;-50
2021/10/23 00:31:08;;;;;;;7.97;5.23;;;;;;;7.59;98.82;101740.94;683012;28;4400;-49
2021/10/23 00:31:28;;;;;;;11.00;5.45;;;;;;;7.58;99.17;101738.28;685275;28;1031;-50
2021/10/23 00:31:48;;;;;;;13.87;5.40;;;;;;;7.58;99.75;101740.91;683560;28;1324;-50
2021/10/23 00:32:09;;;;;;;13.50;5.70;;;;;;;7.59;100.00;101732.25;683984;28;1045;-53
2021/10/23 00:32:29;;;;;;;12.13;5.47;;;;;;;7.57;100.00;101736.53;683319;28;1952;-51
2021/10/23 00:32:50;;;;;;;11.32;5.90;;;;;;;7.56;100.00;101734.75;680501;28;3416;-51
2021/10/23 00:33:11;;;;;;;11.48;5.70;;;;;;;7.54;100.00;101737.31;678776;29;1078;-49
2021/10/23 00:33:31;;;;;;;11.07;5.75;;;;;;;7.54;100.00;101739.06;679698;28;1453;-50
2021/10/23 00:33:52;;;;;;;11.83;5.70;;;;;;;7.54;100.00;101734.72;680030;28;4710;-50
2021/10/23 00:34:13;;;;;;;12.48;5.75;;;;;;;7.53;100.00;101743.38;679586;28;1208;-51
2021/10/23 00:34:33;;;;;;;11.80;5.93;;;;;;;7.54;100.00;101739.06;679136;28;1272;-52
2021/10/23 00:34:54;;;;;;;11.23;5.83;;;;;;;7.53;100.00;101737.28;681858;28;1191;-50
2021/10/23 00:35:17;;;;;;;9.88;5.50;;;;;;;7.56;100.00;101739.97;686426;28;1180;-49
2021/10/23 00:35:37;;;;;;;11.43;5.68;;;;;;;7.53;100.00;101738.16;685191;28;3258;-50
2021/10/23 00:35:57;;;;;;;9.50;5.70;;;;;;;7.53;100.00;101737.28;685392;28;1464;-50
2021/10/23 00:36:18;;;;;;;8.95;5.50;;;;;;;7.54;100.00;101744.25;686115;28;1132;-52
2021/10/23 00:36:38;;;;;;;9.63;5.27;;;;;;;7.55;100.00;101735.63;686224;28;1144;-50
2021/10/23 00:36:59;;;;;;;9.48;5.18;;;;;;;7.54;100.00;101733.84;685510;28;4866;-49
2021/10/23 00:37:20;;;;;;;11.95;5.60;;;;;;;7.52;100.00;101740.72;686669;28;1126;-50
2021/10/23 00:37:40;;;;;;;10.70;5.60;;;;;;;7.51;100.00;101739.84;685718;28;1149;-49
2021/10/23 00:38:01;;;;;;;12.33;6.17;;;;;;;7.51;100.00;101737.25;681870;28;1090;-50
2021/10/23 00:38:21;;;;;;;13.43;6.10;;;;;;;7.50;100.00;101740.69;683912;28;3111;-51
2021/10/23 00:38:41;;;;;;;14.13;6.15;;;;;;;7.50;100.00;101741.59;682038;28;3539;-51
2021/10/23 00:39:02;;;;;;;11.80;6.10;;;;;;;7.49;100.00;101747.63;683243;28;3608;-51
2021/10/23 00:39:23;;;;;;;13.13;6.28;;;;;;;7.49;100.00;101745.03;682537;28;1136;-51
2021/10/23 00:39:43;;;;;;;13.67;6.50;;;;;;;7.48;100.00;101740.66;684033;28;994;-53
2021/10/23 00:40:04;;;;;;;12.85;6.25;;;;;;;7.51;100.00;101742.47;685345;28;4452;-51
2021/10/23 00:40:25;;;;;;;11.93;5.88;;;;;;;7.51;100.00;101739.84;682720;28;1278;-54
2021/10/23 00:40:45;;;;;;;11.50;5.55;;;;;;;7.53;100.00;101734.69;683105;28;994;-50
2021/10/23 00:41:05;;;;;;;12.97;5.60;;;;;;;7.53;100.00;101739.91;680220;28;933;-50
2021/10/23 00:41:26;;;;;;;12.38;5.70;;;;;;;7.52;100.00;101735.53;681337;28;3660;-51
2021/10/23 00:41:46;;;;;;;11.23;5.50;;;;;;;7.53;100.00;101740.75;678359;28;3544;-50
2021/10/23 00:42:07;;;;;;;10.53;5.60;;;;;;;7.53;100.00;101737.28;678340;28;1092;-54
2021/10/23 00:42:27;;;;;;;10.18;5.60;;;;;;;7.50;100.00;101744.19;681903;28;1139;-50
2021/10/23 00:42:47;;;;;;;12.03;5.70;;;;;;;7.50;100.00;101743.28;681116;28;1042;-50
2021/10/23 00:43:08;;;;;;;11.93;5.60;;;;;;;7.50;100.00;101739.00;681952;28;4548;-53
2021/10/23 00:43:28;;;;;;;10.33;5.37;;;;;;;7.50;100.00;101743.28;682850;28;1338;-51
2021/10/23 00:43:49;;;;;;;9.38;4.97;;;;;;;7.50;99.99;101746.81;684375;28;1049;-52
2021/10/23 00:44:29;;;;;;;10.07;5.00;;;;;;;7.53;100.00;101737.28;685367;28;1152;-50
2021/10/23 00:44:49;;;;;;;9.70;5.68;;;;;;;7.53;100.00;101739.91;685809;28;1185;-50
2021/10/23 00:45:10;;;;;;;10.18;5.70;;;;;;;7.51;100.00;101734.66;684482;28;1064;-53
2021/10/23 00:45:30;;;;;;;10.33;5.70;;;;;;;7.52;100.00;101740.72;685395;28;1111;-51
2021/10/23 00:45:50;;;;;;;10.32;5.90;;;;;;;7.51;100.00;101734.66;685311;28;4608;-51
2021/10/23 00:46:12;;;;;;;11.57;5.97;;;;;;;7.50;100.00;101738.09;685476;28;1080;-52
2021/10/23 00:46:32;;;;;;;13.07;6.00;;;;;;;7.47;100.00;101740.63;686499;28;1077;-50
2021/10/23 00:46:53;;;;;;;12.50;5.60;;;;;;;7.45;100.00;101735.38;685615;28;1103;-50
2021/10/23 00:47:20;;;;;;;11.93;5.75;;;;;;;7.45;100.00;101737.97;686823;28;1084;-50
2021/10/23 00:47:40;;;;;;;10.10;5.22;;;;;;;7.47;100.00;101744.09;684757;28;2108;-53
2021/10/23 00:48:01;;;;;;;9.93;5.38;;;;;;;7.48;100.00;101740.66;686042;28;926;-50
2021/10/23 00:48:21;;;;;;;11.03;5.73;;;;;;;7.44;100.00;101746.63;686392;28;1430;-50
2021/10/23 00:48:42;;;;;;;11.20;5.60;;;;;;;7.46;100.00;101742.34;682130;28;1018;-54
2021/10/23 00:49:03;;;;;;;9.95;5.03;;;;;;;7.48;100.00;101751.06;683143;28;4347;-51
2021/10/23 00:49:23;;;;;;;10.77;4.90;;;;;;;7.48;100.00;101745.00;682839;28;1978;-52
2021/10/23 00:49:50;;;;;;;10.55;5.22;;;;;;;7.47;100.00;101744.09;683332;28;1079;-50
2021/10/23 00:50:10;;;;;;;12.38;5.85;;;;;;;7.46;100.00;101752.75;681793;28;1089;-53
2021/10/23 00:50:31;;;;;;;12.20;6.00;;;;;;;7.44;100.00;101744.03;683136;28;3932;-52
2021/10/23 00:50:51;;;;;;;11.45;5.72;;;;;;;7.45;100.00;101751.00;685750;28;1101;-51
2021/10/23 00:51:15;;;;;;;9.83;5.40;;;;;;;7.48;100.00;101742.38;686919;28;1303;-53
2021/10/23 00:51:35;;;;;;;8.75;5.25;;;;;;;7.51;99.75;101745.06;685251;28;2053;-51
2021/10/23 00:51:57;;;;;;;10.07;5.20;;;;;;;7.53;99.92;101747.69;684054;28;4522;-51
2021/10/23 00:52:21;;;;;;;10.20;5.63;;;;;;;7.52;100.00;101746.84;685388;28;1381;-51
2021/10/23 00:52:41;;;;;;;12.50;5.93;;;;;;;7.52;99.99;101746.84;685673;28;1320;-50
2021/10/23 00:53:02;;;;;;;13.10;6.03;;;;;;;7.52;100.00;101749.44;685623;28;1358;-50
2021/10/23 00:53:25;;;;;;;12.15;5.88;;;;;;;7.51;100.00;101750.25;684507;28;3390;-55
2021/10/23 00:53:46;;;;;;;13.00;5.82;;;;;;;7.50;100.00;101753.69;684572;28;1278;-51
2021/10/23 00:54:06;;;;;;;13.77;5.63;;;;;;;7.48;100.00;101755.41;685114;28;1309;-53
2021/10/23 00:54:27;;;;;;;11.48;5.40;;;;;;;7.47;100.00;101749.28;685381;28;1006;-51
2021/10/23 00:54:49;;;;;;;12.65;5.93;;;;;;;7.46;100.00;101755.38;685322;28;1153;-51
2021/10/23 00:55:10;;;;;;;12.35;5.95;;;;;;;7.44;100.00;101754.44;680466;28;5987;-50
2021/10/23 00:55:30;;;;;;;12.10;5.73;;;;;;;7.45;100.00;101752.72;680263;28;1097;-54
2021/10/23 00:55:51;;;;;;;11.07;5.80;;;;;;;7.44;100.00;101753.56;679308;28;1025;-50
2021/10/23 00:56:12;;;;;;;11.47;6.03;;;;;;;7.42;100.00;101756.13;680699;28;3107;-51
2021/10/23 00:56:32;;;;;;;11.73;5.93;;;;;;;7.41;100.00;101754.34;677201;28;3536;-51
2021/10/23 00:56:53;;;;;;;11.85;5.80;;;;;;;7.41;100.00;101758.69;677899;28;1089;-53
2021/10/23 00:57:14;;;;;;;11.18;5.60;;;;;;;7.40;100.00;101755.19;680065;28;1067;-51
2021/10/23 00:57:35;;;;;;;9.43;5.60;;;;;;;7.40;100.00;101752.59;680035;28;1076;-51
2021/10/23 00:57:55;;;;;;;10.75;5.70;;;;;;;7.42;100.00;101756.13;679523;28;4399;-50
2021/10/23 00:58:17;;;;;;;9.67;5.13;;;;;;;7.44;99.66;101759.63;682461;28;1014;-50
2021/10/23 00:58:38;;;;;;;8.70;5.00;;;;;;;7.46;99.06;101760.56;685544;28;1308;-51
2021/10/23 00:58:58;;;;;;;9.65;5.18;;;;;;;7.48;98.36;101761.47;685949;28;1231;-53
2021/10/23 00:59:20;;;;;;;10.10;5.32;;;;;;;7.48;98.72;101761.47;687241;28;3080;-50
2021/10/23 00:59:40;;;;;;;9.57;5.25;;;;;;;7.50;99.32;101762.41;681958;28;1232;-50
2021/10/23 01:00:01;;;;;;;9.07;5.20;;;;;;;7.53;99.18;101758.09;682644;28;1124;-50
2021/10/23 01:00:22;;;;;;;9.75;5.32;;;;;;;7.54;99.65;101762.47;683822;28;1272;-51
2021/10/23 01:00:44;;;;;;;10.50;5.28;;;;;;;7.53;99.94;101764.19;681257;28;1038;-53
2021/10/23 01:01:05;;;;;;;11.07;5.50;;;;;;;7.53;99.41;101760.72;682462;28;4323;-53
2021/10/23 01:01:25;;;;;;;11.90;5.57;;;;;;;7.52;100.00;101769.34;684451;28;1199;-50
2021/10/23 01:01:46;;;;;;;10.75;5.90;;;;;;;7.51;100.00;101768.47;687211;28;1008;-50
2021/10/23 01:02:06;;;;;;;9.35;5.60;;;;;;;7.50;99.71;101770.22;685262;28;1865;-51
2021/10/23 01:02:27;;;;;;;9.07;5.07;;;;;;;7.50;99.72;101764.09;686007;28;3474;-51
2021/10/23 01:02:47;;;;;;;9.23;4.83;;;;;;;7.52;99.57;101771.94;686237;28;1193;-51
2021/10/23 01:03:08;;;;;;;10.10;5.20;;;;;;;7.51;99.64;101768.47;686556;28;1263;-51
2021/10/23 01:03:28;;;;;;;9.70;5.40;;;;;;;7.53;99.25;101776.31;684638;28;1637;-53
2021/10/23 01:03:49;;;;;;;8.37;4.93;;;;;;;7.55;99.47;101774.66;682869;28;4576;-50
2021/10/23 01:04:09;;;;;;;10.00;5.22;;;;;;;7.55;98.94;101777.25;684067;28;1097;-50
2021/10/23 01:04:30;;;;;;;10.33;5.60;;;;;;;7.56;99.49;101771.19;684947;28;1084;-51
2021/10/23 01:04:51;;;;;;;12.63;5.55;;;;;;;7.56;99.32;101768.59;683667;28;1025;-51
2021/10/23 01:05:11;;;;;;;11.73;5.67;;;;;;;7.55;99.03;101772.91;683121;28;3842;-50
2021/10/23 01:05:32;;;;;;;12.00;5.90;;;;;;;7.55;100.00;101766.84;685998;28;4640;-51
2021/10/23 01:05:54;;;;;;;9.93;5.87;;;;;;;7.54;99.18;101765.94;686255;28;1060;-50
2021/10/23 01:06:14;;;;;;;10.57;5.88;;;;;;;7.55;99.42;101772.91;681786;28;1474;-50
2021/10/23 01:06:35;;;;;;;10.77;6.07;;;;;;;7.56;99.40;101760.78;682588;28;1274;-51
2021/10/23 01:06:55;;;;;;;12.63;5.93;;;;;;;7.53;99.72;101764.19;683593;28;4581;-50
2021/10/23 01:07:16;;;;;;;10.65;5.93;;;;;;;7.53;99.62;101758.97;682313;28;1195;-52
2021/10/23 01:07:37;;;;;;;11.70;6.07;;;;;;;7.54;99.22;101765.09;683440;28;1275;-51
2021/10/23 01:07:58;;;;;;;11.10;5.87;;;;;;;7.55;98.90;101764.25;680192;28;1160;-53
2021/10/23 01:08:19;;;;;;;10.95;5.75;;;;;;;7.54;99.18;101762.47;683162;28;3252;-53
2021/10/23 01:08:39;;;;;;;12.90;6.50;;;;;;;7.55;99.19;101761.66;682680;28;1237;-53
2021/10/23 01:08:59;;;;;;;12.35;6.10;;;;;;;7.56;99.34;101763.38;684436;28;1125;-51
2021/10/23 01:09:20;;;;;;;11.27;6.23;;;;;;;7.55;100.00;101767.72;683602;28;1935;-51
2021/10/23 01:09:41;;;;;;;10.90;7.10;;;;;;;7.55;99.65;101766.84;683524;28;1275;-51
2021/10/23 01:10:07;;;;;;;11.63;6.60;;;;;;;7.55;99.71;101769.44;685590;28;4598;-52
2021/10/23 01:10:28;;;;;;;11.80;5.95;;;;;;;7.55;99.10;101772.06;684664;28;1101;-50
2021/10/23 01:10:50;;;;;;;10.90;5.53;;;;;;;7.55;99.82;101766.84;684986;28;1012;-51
2021/10/23 01:11:11;;;;;;;10.35;5.18;;;;;;;7.55;99.57;101765.13;683703;28;3245;-50
2021/10/23 01:11:31;;;;;;;9.20;4.80;;;;;;;7.56;98.73;101766.88;683211;28;1083;-52
2021/10/23 01:11:53;;;;;;;10.68;4.97;;;;;;;7.56;98.92;101768.59;683141;28;1470;-52
2021/10/23 01:12:14;;;;;;;10.00;5.60;;;;;;;7.56;99.92;101768.59;683987;28;1125;-50
2021/10/23 01:12:35;;;;;;;11.00;5.85;;;;;;;7.53;100.00;101769.38;681123;28;1292;-50
2021/10/23 01:12:57;;;;;;;11.55;6.38;;;;;;;7.52;100.00;101764.16;681089;28;4410;-50
2021/10/23 01:13:17;;;;;;;11.32;6.10;;;;;;;7.50;100.00;101770.22;682521;28;1474;-51
2021/10/23 01:13:38;;;;;;;12.73;6.23;;;;;;;7.48;100.00;101766.69;682814;28;1145;-54
2021/10/23 01:14:00;;;;;;;12.40;6.30;;;;;;;7.49;100.00;101768.44;681995;28;1977;-51
2021/10/23 01:14:25;;;;;;;11.98;6.30;;;;;;;7.50;99.99;101764.09;680762;28;3474;-54
2021/10/23 01:14:46;;;;;;;11.95;6.45;;;;;;;7.48;100.00;101768.41;683174;28;1183;-55
2021/10/23 01:15:20;;;;;;;11.18;6.88;;;;;;;7.47;100.00;101762.31;679721;28;1168;-52
2021/10/23 01:15:41;;;;;;;12.93;6.78;;;;;;;7.47;99.90;101770.13;681351;28;1245;-53
2021/10/23 01:16:01;;;;;;;11.85;6.63;;;;;;;7.47;100.00;101766.63;679964;28;4372;-51
2021/10/23 01:16:21;;;;;;;11.03;6.23;;;;;;;7.48;100.00;101771.88;683345;28;1312;-51
2021/10/23 01:16:43;;;;;;;13.10;6.15;;;;;;;7.47;100.00;101770.13;683173;28;970;-52
2021/10/23 01:17:04;;;;;;;12.88;6.53;;;;;;;7.46;100.00;101765.78;684678;28;3637;-51
2021/10/23 01:17:24;;;;;;;11.15;6.13;;;;;;;7.45;100.00;101764.00;685316;28;3895;-51
2021/10/23 01:17:45;;;;;;;11.67;6.07;;;;;;;7.45;100.00;101766.59;686092;28;1327;-52
2021/10/23 01:18:07;;;;;;;11.70;5.97;;;;;;;7.46;100.00;101772.69;686036;28;1100;-49
2021/10/23 01:18:28;;;;;;;11.23;6.00;;;;;;;7.45;100.00;101766.59;685459;28;1112;-52
2021/10/23 01:18:48;;;;;;;9.45;5.70;;;;;;;7.44;100.00;101759.63;685307;28;1041;-51
2021/10/23 01:19:10;;;;;;;10.60;5.80;;;;;;;7.44;100.00;101770.03;685868;28;5542;-50
2021/10/23 01:19:31;;;;;;;14.30;6.22;;;;;;;7.43;100.00;101768.28;685977;28;1025;-52
2021/10/23 01:19:53;;;;;;;11.77;6.50;;;;;;;7.42;100.00;101760.44;686545;28;942;-49
2021/10/23 01:20:17;;;;;;;14.18;6.40;;;;;;;7.39;100.00;101765.56;684086;28;3430;-51
2021/10/23 01:20:38;;;;;;;11.07;6.13;;;;;;;7.34;100.00;101762.84;682965;28;1112;-50
2021/10/23 01:20:58;;;;;;;10.93;6.10;;;;;;;7.32;100.00;101765.41;683992;28;1320;-51
2021/10/23 01:21:23;;;;;;;10.20;5.97;;;;;;;7.36;100.00;101766.34;683634;28;1133;-50
2021/10/23 01:21:47;;;;;;;10.32;5.93;;;;;;;7.41;100.00;101764.75;683097;28;1070;-50
2021/10/23 01:22:07;;;;;;;10.45;5.80;;;;;;;7.44;99.13;101763.97;684291;28;4342;-53
2021/10/23 01:22:28;;;;;;;11.93;6.80;;;;;;;7.45;98.66;101761.41;687045;28;1183;-49
2021/10/23 01:22:50;;;;;;;11.18;6.68;;;;;;;7.47;98.09;101764.91;685365;28;990;-51
2021/10/23 01:23:10;;;;;;;11.98;6.38;;;;;;;7.49;98.29;101765.84;683107;28;3263;-50
2021/10/23 01:23:31;;;;;;;12.07;6.20;;;;;;;7.51;97.53;101765.88;683211;28;1048;-51
2021/10/23 01:23:51;;;;;;;12.90;6.40;;;;;;;7.54;97.33;101765.09;683015;28;1118;-53
2021/10/23 01:24:12;;;;;;;10.52;6.25;;;;;;;7.54;97.30;101765.94;683394;28;1105;-49
2021/10/23 01:24:32;;;;;;;10.80;5.97;;;;;;;7.57;97.11;101768.63;682650;28;1133;-49
2021/10/23 01:24:53;;;;;;;11.48;6.05;;;;;;;7.59;97.61;101771.28;681668;28;4427;-52
2021/10/23 01:25:14;;;;;;;12.10;6.80;;;;;;;7.57;99.14;101770.34;683109;28;1073;-50
2021/10/23 01:25:35;;;;;;;11.68;7.13;;;;;;;7.53;99.45;101772.00;680472;28;1404;-52
2021/10/23 01:25:55;;;;;;;11.45;6.85;;;;;;;7.48;99.80;101765.81;680229;28;1421;-50
2021/10/23 01:26:22;;;;;;;13.83;7.13;;;;;;;7.42;99.45;101771.75;680987;28;2159;-51
2021/10/23 01:26:43;;;;;;;12.45;7.15;;;;;;;7.40;99.92;101760.41;681933;28;1189;-51
2021/10/23 01:27:03;;;;;;;12.37;6.87;;;;;;;7.40;99.95;101772.53;679865;28;1009;-50
2021/10/23 01:27:24;;;;;;;13.38;7.03;;;;;;;7.40;99.65;101757.78;681301;28;1109;-52
2021/10/23 01:27:45;;;;;;;13.73;6.73;;;;;;;7.41;98.95;101767.38;681472;28;1082;-51
2021/10/23 01:28:08;;;;;;;13.75;6.60;;;;;;;7.44;99.17;101769.16;678093;29;4429;-51
2021/10/23 01:28:28;;;;;;;11.63;6.65;;;;;;;7.44;100.00;101763.97;678869;29;1109;-51
2021/10/23 01:28:49;;;;;;;12.75;7.03;;;;;;;7.40;99.97;101763.00;678459;28;3469;-52
2021/10/23 01:29:12;;;;;;;14.32;7.22;;;;;;;7.38;100.00;101769.91;678451;28;3920;-51
2021/10/23 01:29:32;;;;;;;12.57;7.32;;;;;;;7.40;99.52;101773.41;680542;28;1422;-52
2021/10/23 01:29:53;;;;;;;10.73;6.20;;;;;;;7.41;98.56;101769.97;682458;28;1322;-54
2021/10/23 01:30:16;;;;;;;11.20;6.10;;;;;;;7.44;99.23;101772.63;681408;28;1205;-50
2021/10/23 01:30:36;;;;;;;11.43;6.40;;;;;;;7.45;98.59;101770.94;680689;28;931;-50
2021/10/23 01:30:57;;;;;;;11.43;6.68;;;;;;;7.43;99.72;101768.28;679091;28;4620;-54
2021/10/23 01:31:19;;;;;;;11.38;6.60;;;;;;;7.44;98.96;101775.25;681687;28;1224;-51
2021/10/23 01:31:40;;;;;;;13.75;6.90;;;;;;;7.42;99.87;101774.34;679252;28;1500;-51
2021/10/23 01:32:01;;;;;;;13.48;7.20;;;;;;;7.41;99.96;101769.09;679468;28;3780;-50
2021/10/23 01:32:21;;;;;;;12.70;7.22;;;;;;;7.40;100.00;101773.41;681842;28;1204;-53
2021/10/23 01:32:41;;;;;;;12.37;7.07;;;;;;;7.40;100.00;101773.41;681751;28;1255;-51
2021/10/23 01:33:02;;;;;;;12.00;6.75;;;;;;;7.40;99.37;101777.75;684763;28;1299;-50
2021/10/23 01:33:23;;;;;;;10.70;6.50;;;;;;;7.43;99.23;101775.22;683475;28;1089;-50
2021/10/23 01:33:43;;;;;;;11.95;6.60;;;;;;;7.45;99.29;101777.00;684047;28;1152;-50
2021/10/23 01:34:11;;;;;;;10.90;6.33;;;;;;;7.46;99.72;101777.88;682014;28;4381;-50
2021/10/23 01:34:32;;;;;;;11.77;6.93;;;;;;;7.46;100.00;101773.56;681172;28;1070;-51
2021/10/23 01:34:52;;;;;;;13.33;7.57;;;;;;;7.46;100.00;101770.06;680904;28;3199;-51
2021/10/23 01:35:12;;;;;;;13.10;7.53;;;;;;;7.43;99.60;101768.28;682830;28;2407;-50
2021/10/23 01:35:33;;;;;;;13.37;7.43;;;;;;;7.43;99.68;101768.28;681722;28;1056;-50
2021/10/23 01:35:53;;;;;;;12.40;7.47;;;;;;;7.41;100.00;101767.38;684433;28;1140;-53
2021/10/23 01:36:16;;;;;;;12.95;7.47;;;;;;;7.39;100.00;101769.03;686070;28;1041;-51
2021/10/23 01:36:42;;;;;;;12.93;7.50;;;;;;;7.39;100.00;101766.44;686139;28;978;-51
2021/10/23 01:37:02;;;;;;;11.70;6.68;;;;;;;7.39;100.00;101770.75;682990;28;5386;-53
2021/10/23 01:37:36;;;;;;;12.73;6.57;;;;;;;7.36;100.00;101766.34;683113;28;1151;-50
2021/10/23 01:37:56;;;;;;;11.10;6.90;;;;;;;7.37;100.00;101769.84;682859;28;3429;-52
2021/10/23 01:38:17;;;;;;;9.80;6.80;;;;;;;7.36;100.00;101765.50;683981;28;1409;-50
2021/10/23 01:38:38;;;;;;;12.40;7.40;;;;;;;7.36;100.00;101775.91;683853;28;1026;-54
2021/10/23 01:39:00;;;;;;;11.97;7.30;;;;;;;7.32;100.00;101769.72;684997;28;1189;-51
2021/10/23 01:39:22;;;;;;;14.77;7.20;;;;;;;7.31;100.00;101767.94;683346;28;3980;-52
2021/10/23 01:39:42;;;;;;;12.63;7.18;;;;;;;7.30;100.00;101766.22;683702;28;1009;-51
2021/10/23 01:40:05;;;;;;;11.73;7.30;;;;;;;7.30;100.00;101767.09;683823;28;4397;-52
2021/10/23 01:40:33;;;;;;;13.27;6.93;;;;;;;7.34;100.00;101765.44;683238;28;1109;-52